Time;durP1;ratioP1;P1;durP2;ratioP2;P2;SDS_P1;SDS_P2;PMS_P1;PMS_P2;Temp;Humidity;BMP_temperature;BMP_pressure;BME280_temperature;BME280_humidity;BME280_pressure;Samples;Min_cycle;Max_cycle;Signal;HPM_P1;HPM_P2
2022/04/19 00:00:47;;;;;;;12.43;8.70;;;;;;;-150.27;100.00;61272.81;5246112;28;20040;-70
2022/04/19 00:03:18;;;;;;;19.43;9.20;;;;;;;-150.27;100.00;61272.81;5249551;28;20519;-69
2022/04/19 00:05:50;;;;;;;9.00;7.57;;;;;;;-150.27;100.00;61272.81;5248248;28;20681;-70
2022/04/19 00:08:21;;;;;;;14.63;7.77;;;;;;;-150.27;100.00;61272.81;5239364;28;20037;-70
2022/04/19 00:10:53;;;;;;;9.63;7.77;;;;;;;-150.27;100.00;61272.81;5245712;28;20021;-69
2022/04/19 00:13:24;;;;;;;12.10;7.60;;;;;;;-150.27;100.00;61272.81;5229682;28;20025;-69
2022/04/19 00:15:56;;;;;;;12.13;9.00;;;;;;;-150.27;100.00;61272.81;5227700;28;20039;-70
2022/04/19 00:18:27;;;;;;;11.87;9.30;;;;;;;-150.27;100.00;61272.81;5228358;28;20103;-70
2022/04/19 00:20:59;;;;;;;11.97;8.97;;;;;;;-150.27;100.00;61272.81;5228388;28;20026;-70
2022/04/19 00:23:30;;;;;;;12.77;9.00;;;;;;;-150.27;100.00;61272.81;5229047;28;20025;-70
2022/04/19 00:26:02;;;;;;;13.10;8.87;;;;;;;-150.27;100.00;61272.81;5228772;28;20592;-69
2022/04/19 00:28:33;;;;;;;9.97;8.30;;;;;;;-150.27;100.00;61272.81;5211027;28;20653;-70
2022/04/19 00:31:05;;;;;;;10.73;8.97;;;;;;;-150.27;100.00;61272.81;5229453;28;20083;-70
2022/04/19 00:33:39;;;;;;;17.83;9.57;;;;;;;-150.27;100.00;61272.81;5229710;28;20029;-70
2022/04/19 00:36:11;;;;;;;12.40;9.20;;;;;;;-150.27;100.00;61272.81;5228966;28;20112;-70
2022/04/19 00:38:42;;;;;;;13.83;9.70;;;;;;;-150.27;100.00;61272.81;5227963;28;20420;-70
2022/04/19 00:41:13;;;;;;;11.20;10.00;;;;;;;-150.27;100.00;61272.81;5228201;28;20125;-69
2022/04/19 00:43:45;;;;;;;14.83;10.07;;;;;;;-150.27;100.00;61272.81;5228381;28;20021;-70
2022/04/19 00:46:16;;;;;;;11.10;9.63;;;;;;;-150.27;100.00;61272.81;5232116;28;20082;-70
2022/04/19 00:48:47;;;;;;;13.50;10.13;;;;;;;-150.27;100.00;61272.81;5229340;28;20044;-70
2022/04/19 00:51:19;;;;;;;15.13;11.73;;;;;;;-150.27;100.00;61272.81;5228219;28;20033;-70
2022/04/19 00:53:50;;;;;;;13.50;10.57;;;;;;;-150.27;100.00;61272.81;5210806;28;20086;-70
2022/04/19 00:56:21;;;;;;;15.17;10.77;;;;;;;-150.27;100.00;61272.81;5228036;28;20017;-70
2022/04/19 00:58:54;;;;;;;12.07;10.70;;;;;;;-150.27;100.00;61272.81;5228141;28;20033;-69
2022/04/19 01:01:25;;;;;;;14.47;11.20;;;;;;;-150.27;100.00;61272.81;5226741;28;20029;-70
2022/04/19 01:03:58;;;;;;;17.30;11.70;;;;;;;-150.27;100.00;61272.81;5227892;28;20049;-70
2022/04/19 01:06:29;;;;;;;13.67;10.43;;;;;;;-150.27;100.00;61272.81;5228729;28;20049;-70
2022/04/19 01:09:01;;;;;;;12.13;10.47;;;;;;;-150.27;100.00;61272.81;5210713;28;20022;-70
2022/04/19 01:14:24;;;;;;;13.43;10.77;;;;;;;-150.27;100.00;61272.81;5212966;28;20063;-69
2022/04/19 01:16:55;;;;;;;13.00;10.40;;;;;;;-150.27;100.00;61272.81;5227378;28;20030;-70
2022/04/19 01:19:27;;;;;;;15.03;11.30;;;;;;;-150.27;100.00;61272.81;5228084;28;20025;-69
2022/04/19 01:21:58;;;;;;;12.37;10.17;;;;;;;-150.27;100.00;61272.81;5210983;28;20057;-70
2022/04/19 01:24:30;;;;;;;16.70;11.10;;;;;;;-150.27;100.00;61272.81;5226192;28;20059;-69
2022/04/19 01:27:01;;;;;;;16.80;11.37;;;;;;;-150.27;100.00;61272.81;5228116;28;20468;-70
2022/04/19 01:29:35;;;;;;;11.97;10.70;;;;;;;-150.27;100.00;61272.81;5227913;28;20034;-70
2022/04/19 01:32:07;;;;;;;11.80;10.30;;;;;;;-150.27;100.00;61272.81;5226808;28;20061;-70
2022/04/19 01:34:38;;;;;;;14.20;11.13;;;;;;;-150.27;100.00;61272.81;5228148;28;20511;-70
2022/04/19 01:37:09;;;;;;;13.20;11.80;;;;;;;-150.27;100.00;61272.81;5227888;28;20033;-69
2022/04/19 01:42:31;;;;;;;13.53;11.03;;;;;;;-150.27;100.00;61272.81;5217854;28;20037;-70
2022/04/19 01:45:03;;;;;;;17.20;10.93;;;;;;;-150.27;100.00;61272.81;5231674;28;20034;-70
2022/04/19 01:47:34;;;;;;;16.00;11.90;;;;;;;-150.27;100.00;61272.81;5212742;28;20022;-69
2022/04/19 01:50:10;;;;;;;11.90;10.50;;;;;;;-150.27;100.00;61272.81;5231714;28;20124;-70
2022/04/19 01:52:42;;;;;;;13.07;11.47;;;;;;;-150.27;100.00;61272.81;5217608;28;20029;-70
2022/04/19 01:55:16;;;;;;;15.47;11.20;;;;;;;-150.27;100.00;61272.81;5231345;28;20025;-70
2022/04/19 01:57:49;;;;;;;13.13;10.57;;;;;;;-150.27;100.00;61272.81;5217648;28;20036;-69
2022/04/19 02:00:21;;;;;;;14.05;11.55;;;;;;;-150.27;100.00;61272.81;5230585;28;20400;-69
2022/04/19 02:02:55;;;;;;;14.40;11.40;;;;;;;-150.27;100.00;61272.81;5230765;28;20029;-70
2022/04/19 02:05:26;;;;;;;15.52;11.23;;;;;;;-150.27;100.00;61272.81;5230760;28;20037;-70
2022/04/19 02:07:57;;;;;;;15.50;12.33;;;;;;;-150.27;100.00;61272.81;5231554;28;20408;-70
2022/04/19 02:10:28;;;;;;;16.43;11.37;;;;;;;-150.27;100.00;61272.81;5230691;28;20470;-69
2022/04/19 02:13:00;;;;;;;13.70;11.37;;;;;;;-150.27;100.00;61272.81;5231273;28;20464;-70
2022/04/19 02:15:31;;;;;;;16.87;11.87;;;;;;;-150.27;100.00;61272.81;5230124;28;20534;-70
2022/04/19 02:18:04;;;;;;;13.23;11.03;;;;;;;-150.27;100.00;61272.81;5230598;28;20512;-70
2022/04/19 02:20:35;;;;;;;16.73;11.33;;;;;;;-150.27;100.00;61272.81;5231365;28;20056;-69
2022/04/19 02:23:07;;;;;;;15.83;12.97;;;;;;;-150.27;100.00;61272.81;5230039;28;20037;-69
2022/04/19 02:25:38;;;;;;;14.73;12.27;;;;;;;-150.27;100.00;61272.81;5230566;28;20116;-69
2022/04/19 02:28:10;;;;;;;14.70;11.43;;;;;;;-150.27;100.00;61272.81;5230965;28;20045;-69
2022/04/19 02:30:41;;;;;;;16.93;12.63;;;;;;;-150.27;100.00;61272.81;5228745;28;20087;-69
2022/04/19 02:33:13;;;;;;;16.37;12.73;;;;;;;-150.27;100.00;61272.81;5230229;28;20076;-70
2022/04/19 02:35:44;;;;;;;13.67;12.13;;;;;;;-150.27;100.00;61272.81;5230036;28;20041;-70
2022/04/19 02:38:15;;;;;;;18.77;12.13;;;;;;;-150.27;100.00;61272.81;5230953;28;20500;-70
2022/04/19 02:40:47;;;;;;;16.37;12.13;;;;;;;-150.27;100.00;61272.81;5229644;28;20040;-70
2022/04/19 02:43:18;;;;;;;15.40;12.20;;;;;;;-150.27;100.00;61272.81;5231098;28;20091;-69
2022/04/19 02:45:54;;;;;;;14.47;12.97;;;;;;;-150.27;100.00;61272.81;5229515;28;20108;-70
2022/04/19 02:48:26;;;;;;;15.73;13.13;;;;;;;-150.27;100.00;61272.81;5230504;28;20026;-69
2022/04/19 02:50:57;;;;;;;13.77;12.20;;;;;;;-150.27;100.00;61272.81;5230746;28;20381;-70
2022/04/19 02:53:28;;;;;;;15.57;13.23;;;;;;;-150.27;100.00;61272.81;5229467;28;20031;-70
2022/04/19 02:55:59;;;;;;;14.33;12.60;;;;;;;-150.27;100.00;61272.81;5230271;28;20435;-70
2022/04/19 02:58:31;;;;;;;15.27;12.60;;;;;;;-150.27;100.00;61272.81;5230061;28;20033;-70
2022/04/19 03:01:02;;;;;;;17.20;12.33;;;;;;;-150.27;100.00;61272.81;5229402;28;20034;-69
2022/04/19 03:03:34;;;;;;;16.53;12.20;;;;;;;-150.27;100.00;61272.81;5229254;28;20045;-70
2022/04/19 03:06:05;;;;;;;19.37;13.00;;;;;;;-150.27;100.00;61272.81;5230402;28;20443;-70
2022/04/19 03:08:36;;;;;;;17.13;13.83;;;;;;;-150.27;100.00;61272.81;5230373;28;20468;-69
2022/04/19 03:11:07;;;;;;;18.17;13.57;;;;;;;-150.27;100.00;61272.81;5229295;28;20588;-70
2022/04/19 03:13:39;;;;;;;19.53;13.60;;;;;;;-150.27;100.00;61272.81;5230235;28;20030;-69
2022/04/19 03:16:13;;;;;;;20.70;13.17;;;;;;;-150.27;100.00;61272.81;5228633;28;20034;-69
2022/04/19 03:18:45;;;;;;;23.33;14.95;;;;;;;-150.27;100.00;61272.81;5230136;28;20044;-69
2022/04/19 03:21:16;;;;;;;21.00;14.27;;;;;;;-150.27;100.00;61272.81;5229628;28;20049;-70
2022/04/19 03:29:28;;;;;;;19.57;13.77;;;;;;;-150.27;100.00;61272.81;5230592;28;20037;-70
2022/04/19 03:31:59;;;;;;;20.90;13.40;;;;;;;-150.27;100.00;61272.81;5229107;28;20738;-70
2022/04/19 03:34:31;;;;;;;18.77;13.70;;;;;;;-150.27;100.00;61272.81;5212539;28;20425;-69
2022/04/19 03:37:02;;;;;;;21.47;14.53;;;;;;;-150.27;100.00;61272.81;5229541;28;20492;-70
2022/04/19 03:39:33;;;;;;;21.17;14.93;;;;;;;-150.27;100.00;61272.81;5230497;28;20025;-70
2022/04/19 03:42:08;;;;;;;20.43;13.63;;;;;;;-150.27;100.00;61272.81;5194542;28;20044;-70
2022/04/19 03:44:40;;;;;;;25.27;14.93;;;;;;;-150.27;100.00;61272.81;5229865;28;20048;-70
2022/04/19 03:47:11;;;;;;;23.83;13.67;;;;;;;-150.27;100.00;61272.81;5229389;28;20640;-70
2022/04/19 03:49:42;;;;;;;19.77;13.93;;;;;;;-150.27;100.00;61272.81;5229279;28;20349;-70
2022/04/19 03:52:14;;;;;;;25.23;15.37;;;;;;;-150.27;100.00;61272.81;5229421;28;20040;-70
2022/04/19 03:54:45;;;;;;;24.73;14.10;;;;;;;-150.27;100.00;61272.81;5228346;28;20029;-70
2022/04/19 03:57:18;;;;;;;22.00;13.33;;;;;;;-150.27;100.00;61272.81;5229265;28;20033;-70
2022/04/19 03:59:49;;;;;;;18.20;13.07;;;;;;;-150.27;100.00;61272.81;5227851;28;20029;-70
2022/04/19 04:02:20;;;;;;;23.83;14.30;;;;;;;-150.27;100.00;61272.81;5228999;28;20033;-70
2022/04/19 04:04:52;;;;;;;20.63;13.80;;;;;;;-150.27;100.00;61272.81;5229129;28;20575;-70
2022/04/19 04:07:26;;;;;;;20.97;14.30;;;;;;;-150.27;100.00;61272.81;5227540;28;20033;-70
2022/04/19 04:09:57;;;;;;;16.17;13.52;;;;;;;-150.27;100.00;61272.81;5228785;28;20036;-70
2022/04/19 04:12:29;;;;;;;22.13;13.27;;;;;;;-150.27;100.00;61272.81;5211127;28;20030;-70
2022/04/19 04:15:03;;;;;;;17.13;12.33;;;;;;;-150.27;100.00;61272.81;5227736;28;20037;-71
2022/04/19 04:17:34;;;;;;;21.33;14.23;;;;;;;-150.27;100.00;61272.81;5229282;28;20026;-70
2022/04/19 04:20:06;;;;;;;19.37;13.00;;;;;;;-150.27;100.00;61272.81;5228132;28;20561;-71
2022/04/19 04:22:37;;;;;;;18.97;14.03;;;;;;;-150.27;100.00;61272.81;5229211;28;20049;-70
2022/04/19 04:25:08;;;;;;;21.23;12.67;;;;;;;-150.27;100.00;61272.81;5227925;28;20026;-70
2022/04/19 04:27:40;;;;;;;18.13;13.40;;;;;;;-150.27;100.00;61272.81;5228945;28;20025;-69
2022/04/19 04:30:11;;;;;;;18.80;13.23;;;;;;;-150.27;100.00;61272.81;5227473;28;20100;-70
2022/04/19 04:32:44;;;;;;;18.20;13.73;;;;;;;-150.27;100.00;61272.81;5228743;28;20099;-70
2022/04/19 04:35:15;;;;;;;23.90;12.97;;;;;;;-150.27;100.00;61272.81;5228279;28;20033;-70
2022/04/19 04:37:46;;;;;;;22.00;13.73;;;;;;;-150.27;100.00;61272.81;5227695;28;20041;-70
2022/04/19 04:40:17;;;;;;;19.60;12.80;;;;;;;-150.27;100.00;61272.81;5228404;28;20471;-70
2022/04/19 04:42:49;;;;;;;15.97;12.03;;;;;;;-150.27;100.00;61272.81;5228101;28;20026;-70
2022/04/19 04:45:20;;;;;;;26.37;12.93;;;;;;;-150.27;100.00;61272.81;5227816;28;20064;-70
2022/04/19 04:50:42;;;;;;;18.90;14.20;;;;;;;-150.27;100.00;61272.81;5223215;28;20535;-70
2022/04/19 04:53:13;;;;;;;15.03;12.63;;;;;;;-150.27;100.00;61272.81;5247465;28;20040;-70
2022/04/19 04:55:44;;;;;;;23.37;12.60;;;;;;;-150.27;100.00;61272.81;5231569;28;20380;-70
2022/04/19 04:58:15;;;;;;;21.20;12.90;;;;;;;-150.27;100.00;61272.81;5226571;28;20812;-70
2022/04/19 05:00:47;;;;;;;18.33;12.27;;;;;;;-150.27;100.00;61272.81;5229093;28;20039;-70
2022/04/19 05:03:18;;;;;;;17.33;13.03;;;;;;;-150.27;100.00;61272.81;5193813;28;20077;-70
2022/04/19 05:05:49;;;;;;;20.27;13.10;;;;;;;-150.27;100.00;61272.81;5226389;28;20025;-70
2022/04/19 05:08:21;;;;;;;20.10;12.53;;;;;;;-150.27;100.00;61272.81;5238495;28;20083;-70
2022/04/19 05:10:52;;;;;;;15.87;13.30;;;;;;;-150.27;100.00;61272.81;5240681;28;20056;-70
2022/04/19 05:13:23;;;;;;;15.83;13.13;;;;;;;-150.27;100.00;61272.81;5212101;28;20040;-70
2022/04/19 05:15:55;;;;;;;18.73;12.67;;;;;;;-150.27;100.00;61272.81;5226984;28;20027;-69
2022/04/19 05:18:26;;;;;;;18.90;13.33;;;;;;;-150.27;100.00;61272.81;5228315;28;20113;-69
2022/04/19 05:20:57;;;;;;;17.00;12.37;;;;;;;-150.27;100.00;61272.81;5231577;28;20025;-69
2022/04/19 05:23:29;;;;;;;16.33;12.40;;;;;;;-150.27;100.00;61272.81;5230763;28;20040;-69
2022/04/19 05:26:00;;;;;;;16.20;13.03;;;;;;;-150.27;100.00;61272.81;5233563;28;20072;-69
2022/04/19 05:28:31;;;;;;;15.43;13.10;;;;;;;-150.27;100.00;61272.81;5250313;28;20029;-69
2022/04/19 05:31:03;;;;;;;14.53;12.63;;;;;;;-150.27;100.00;61272.81;5235049;28;20041;-69
2022/04/19 05:33:35;;;;;;;15.70;12.80;;;;;;;-150.27;100.00;61272.81;5228949;28;20120;-69
2022/04/19 05:36:06;;;;;;;17.93;13.40;;;;;;;-150.27;100.00;61272.81;5221216;28;20116;-74
2022/04/19 05:38:38;;;;;;;19.87;13.57;;;;;;;-150.27;100.00;61272.81;5230845;28;20017;-70
2022/04/19 05:41:10;;;;;;;18.90;13.70;;;;;;;-150.27;100.00;61272.81;5241708;28;20021;-69
2022/04/19 05:43:41;;;;;;;18.23;13.43;;;;;;;-150.27;100.00;61272.81;5225118;28;20029;-70
2022/04/19 05:46:13;;;;;;;16.47;12.73;;;;;;;-150.27;100.00;61272.81;5230912;28;20040;-70
2022/04/19 05:48:45;;;;;;;17.23;13.07;;;;;;;-150.27;100.00;61272.81;5229357;28;20029;-69
2022/04/19 05:51:16;;;;;;;20.10;12.53;;;;;;;-150.27;100.00;61272.81;5230813;28;20029;-70
2022/04/19 05:53:47;;;;;;;16.97;12.63;;;;;;;-150.27;100.00;61272.81;5229133;28;20090;-70
2022/04/19 05:56:19;;;;;;;15.43;12.47;;;;;;;-150.27;100.00;61272.81;5233535;28;20037;-70
2022/04/19 05:58:50;;;;;;;18.47;12.40;;;;;;;-150.27;100.00;61272.81;5227317;28;20088;-70
2022/04/19 06:01:22;;;;;;;17.03;13.93;;;;;;;-150.27;100.00;61272.81;5230256;28;20377;-68
2022/04/19 06:06:43;;;;;;;17.90;11.73;;;;;;;-150.27;100.00;61272.81;5232218;28;20872;-68
2022/04/19 06:09:16;;;;;;;18.23;13.13;;;;;;;-150.27;100.00;61272.81;5246700;28;20020;-70
2022/04/19 06:11:47;;;;;;;14.83;12.43;;;;;;;-150.27;100.00;61272.81;5210788;28;20120;-70
2022/04/19 06:14:19;;;;;;;22.23;13.83;;;;;;;-150.27;100.00;61272.81;5230700;28;20036;-70
2022/04/19 06:16:50;;;;;;;19.40;13.40;;;;;;;-150.27;100.00;61272.81;5211877;28;20036;-70
2022/04/19 06:19:22;;;;;;;16.60;12.43;;;;;;;-150.27;100.00;61272.81;5217069;28;20476;-70
2022/04/19 06:21:55;;;;;;;16.07;12.90;;;;;;;-150.27;100.00;61272.81;5229545;28;20124;-70
2022/04/19 06:24:26;;;;;;;15.83;12.93;;;;;;;-150.27;100.00;61272.81;5212538;28;20021;-70
2022/04/19 06:26:57;;;;;;;15.97;12.53;;;;;;;-150.27;100.00;61272.81;5245494;28;20033;-69
2022/04/19 06:29:28;;;;;;;15.40;13.03;;;;;;;-150.27;100.00;61272.81;5236349;28;20033;-70
2022/04/19 06:32:00;;;;;;;16.47;12.57;;;;;;;-150.27;100.00;61272.81;5231873;28;20044;-69
2022/04/19 06:34:31;;;;;;;19.60;11.90;;;;;;;-150.27;100.00;61272.81;5240886;28;20029;-70
2022/04/19 06:37:03;;;;;;;16.90;12.07;;;;;;;-150.27;100.00;61272.81;5233847;28;20075;-69
2022/04/19 06:39:34;;;;;;;15.83;12.03;;;;;;;-150.27;100.00;61272.81;5229360;28;20094;-69
2022/04/19 06:42:06;;;;;;;16.30;12.70;;;;;;;-150.27;100.00;61272.81;5230854;28;20437;-69
2022/04/19 06:44:37;;;;;;;17.37;12.27;;;;;;;-150.27;100.00;61272.81;5230548;28;20071;-69
2022/04/19 06:47:08;;;;;;;16.83;12.97;;;;;;;-150.27;100.00;61272.81;5212198;28;20094;-69
2022/04/19 06:49:39;;;;;;;20.90;13.23;;;;;;;-150.27;100.00;61272.81;5229448;28;20033;-69
2022/04/19 06:52:11;;;;;;;16.87;13.20;;;;;;;-150.27;100.00;61272.81;5235864;28;20037;-69
2022/04/19 06:54:42;;;;;;;17.97;12.23;;;;;;;-150.27;100.00;61272.81;5232365;28;20570;-69
2022/04/19 06:57:13;;;;;;;17.73;12.17;;;;;;;-150.27;100.00;61272.81;5228909;28;20392;-69
2022/04/19 06:59:46;;;;;;;18.50;11.43;;;;;;;-150.27;100.00;61272.81;5227445;28;20036;-69
2022/04/19 07:02:17;;;;;;;14.70;11.33;;;;;;;-150.27;100.00;61272.81;5230806;28;20044;-69
2022/04/19 07:04:49;;;;;;;19.93;13.40;;;;;;;-150.27;100.00;61272.81;5229610;28;20053;-68
2022/04/19 07:07:20;;;;;;;16.53;12.17;;;;;;;-150.27;100.00;61272.81;5231868;28;20080;-68
2022/04/19 07:09:52;;;;;;;17.03;12.03;;;;;;;-150.27;100.00;61272.81;5240093;28;20535;-68
2022/04/19 07:12:24;;;;;;;19.03;12.10;;;;;;;-150.27;100.00;61272.81;5239030;28;20124;-68
2022/04/19 07:14:55;;;;;;;19.93;13.57;;;;;;;-150.27;100.00;61272.81;5210403;28;20040;-69
2022/04/19 07:17:26;;;;;;;17.57;12.27;;;;;;;-150.27;100.00;61272.81;5229109;28;20036;-69
2022/04/19 07:28:35;;;;;;;16.47;11.70;;;;;;;-150.27;100.00;61272.81;5240753;28;20049;-69
2022/04/19 07:31:06;;;;;;;15.37;11.27;;;;;;;-150.27;100.00;61272.81;5230006;28;20080;-70
2022/04/19 07:33:37;;;;;;;15.13;11.67;;;;;;;-150.27;100.00;61272.81;5228716;28;20434;-70
2022/04/19 07:36:09;;;;;;;14.73;10.40;;;;;;;-150.27;100.00;61272.81;5230675;28;20723;-70
2022/04/19 07:38:40;;;;;;;15.17;11.47;;;;;;;-150.27;100.00;61272.81;5232974;28;20116;-68
2022/04/19 07:41:12;;;;;;;16.43;10.83;;;;;;;-150.27;100.00;61272.81;5228470;28;20018;-68
2022/04/19 07:43:45;;;;;;;19.90;10.23;;;;;;;-150.27;100.00;61272.81;5231487;28;20106;-68
2022/04/19 07:46:18;;;;;;;19.80;11.88;;;;;;;-150.27;100.00;61272.81;5230407;28;20039;-68
2022/04/19 07:48:51;;;;;;;14.73;9.77;;;;;;;-150.27;100.00;61272.81;5230914;28;20391;-69
2022/04/19 07:51:23;;;;;;;13.07;10.65;;;;;;;-150.27;100.00;61272.81;5230428;28;20017;-69
2022/04/19 07:53:55;;;;;;;13.77;8.97;;;;;;;-150.27;100.00;61272.81;5213884;28;20029;-70
2022/04/19 07:56:26;;;;;;;13.23;9.20;;;;;;;-150.27;100.00;61272.81;5250512;28;20460;-69
2022/04/19 07:58:57;;;;;;;12.73;8.67;;;;;;;-150.27;100.00;61272.81;5238018;28;20028;-70
2022/04/19 08:01:29;;;;;;;12.57;8.63;;;;;;;-150.27;100.00;61272.81;5228227;28;20030;-70
2022/04/19 08:04:00;;;;;;;11.87;9.70;;;;;;;-150.27;100.00;61272.81;5230835;28;20535;-69
2022/04/19 08:06:32;;;;;;;12.97;8.80;;;;;;;-150.27;100.00;61272.81;5232162;28;20515;-68
2022/04/19 08:09:03;;;;;;;11.50;9.50;;;;;;;-150.27;100.00;61272.81;5249896;28;20062;-69
2022/04/19 08:11:34;;;;;;;11.57;8.90;;;;;;;-150.27;100.00;61272.81;5245348;28;20029;-70
2022/04/19 08:14:05;;;;;;;11.53;9.23;;;;;;;-150.27;100.00;61272.81;5227663;28;20098;-69
2022/04/19 08:16:37;;;;;;;12.70;8.45;;;;;;;-150.27;100.00;61272.81;5232055;28;20044;-70
2022/04/19 08:19:08;;;;;;;13.32;7.85;;;;;;;-150.27;100.00;61272.81;5240557;28;20045;-69
2022/04/19 08:21:39;;;;;;;10.93;7.68;;;;;;;-150.27;100.00;61272.81;5214486;28;20080;-70
2022/04/19 08:24:10;;;;;;;9.93;8.25;;;;;;;-150.27;100.00;61272.81;5211646;28;20037;-69
2022/04/19 08:26:42;;;;;;;12.05;9.30;;;;;;;-150.27;100.00;61272.81;5213115;28;20036;-70
2022/04/19 08:29:13;;;;;;;10.30;8.00;;;;;;;-150.27;100.00;61272.81;5209693;28;20041;-70
2022/04/19 08:31:44;;;;;;;12.07;8.35;;;;;;;-150.27;100.00;61272.81;5229939;28;20068;-69
2022/04/19 08:34:16;;;;;;;9.30;7.53;;;;;;;-150.27;100.00;61272.81;5230009;28;20037;-70
2022/04/19 08:36:47;;;;;;;11.20;7.40;;;;;;;-150.27;100.00;61272.81;5231833;28;20039;-71
2022/04/19 08:39:18;;;;;;;12.52;8.07;;;;;;;-150.27;100.00;61272.81;5249632;28;20029;-70
2022/04/19 08:41:49;;;;;;;10.77;7.65;;;;;;;-150.27;100.00;61272.81;5248679;28;20526;-70
2022/04/19 08:44:21;;;;;;;9.52;7.93;;;;;;;-150.27;100.00;61272.81;5248754;28;20029;-70
2022/04/19 08:46:57;;;;;;;10.88;7.53;;;;;;;-150.27;100.00;61272.81;5236626;28;20048;-71
2022/04/19 08:49:28;;;;;;;9.00;6.95;;;;;;;-150.27;100.00;61272.81;5208269;28;20029;-70
2022/04/19 08:51:59;;;;;;;8.27;6.40;;;;;;;-150.27;100.00;61272.81;5212589;28;20107;-70
2022/04/19 08:57:29;;;;;;;9.50;6.40;;;;;;;-150.27;100.00;61272.81;5246488;28;20475;-70
2022/04/19 09:00:04;;;;;;;7.90;6.28;;;;;;;-150.27;100.00;61272.81;5249025;28;20156;-70
2022/04/19 09:02:37;;;;;;;8.18;6.88;;;;;;;-150.27;100.00;61272.81;5253083;28;20017;-70
2022/04/19 09:05:16;;;;;;;7.55;5.97;;;;;;;-150.27;100.00;61272.81;5250064;28;20049;-68
2022/04/19 09:07:50;;;;;;;7.55;5.40;;;;;;;-150.27;100.00;61272.81;5232665;28;20029;-69
2022/04/19 09:10:29;;;;;;;8.90;6.25;;;;;;;-150.27;100.00;61272.81;5234157;28;20029;-69
2022/04/19 09:13:05;;;;;;;8.38;6.07;;;;;;;-150.27;100.00;61272.81;5233937;28;20029;-69
2022/04/19 09:15:42;;;;;;;10.35;6.05;;;;;;;-150.27;100.00;61272.81;5230363;28;20030;-69
2022/04/19 09:18:24;;;;;;;8.27;6.35;;;;;;;-150.27;100.00;61272.81;5231979;28;20033;-69
2022/04/19 09:21:04;;;;;;;11.63;7.15;;;;;;;-150.27;100.00;61272.81;5233138;28;20022;-69
2022/04/19 09:23:35;;;;;;;9.93;5.97;;;;;;;-150.27;100.00;61272.81;5233637;28;20484;-69
2022/04/19 09:26:08;;;;;;;7.53;6.53;;;;;;;-150.27;100.00;61272.81;5234068;28;20163;-69
2022/04/19 09:28:40;;;;;;;9.93;6.38;;;;;;;-150.27;100.00;61272.81;5232835;28;20101;-69
2022/04/19 09:31:11;;;;;;;8.95;6.40;;;;;;;-150.27;100.00;61272.81;5230619;28;20025;-70
2022/04/19 09:33:42;;;;;;;8.30;6.32;;;;;;;-150.27;100.00;61272.81;5240038;28;20883;-69
2022/04/19 09:36:26;;;;;;;8.45;6.03;;;;;;;-150.27;100.00;61272.81;5222399;28;20145;-69
2022/04/19 09:38:57;;;;;;;8.77;5.68;;;;;;;-150.27;100.00;61272.81;5231706;28;20112;-69
2022/04/19 09:41:30;;;;;;;9.70;5.82;;;;;;;-150.27;100.00;61272.81;5230913;28;20112;-70
2022/04/19 09:44:05;;;;;;;;;;;;;;;-150.27;100.00;61272.81;5226057;28;20444;-67
2022/04/19 09:46:38;;;;;;;9.32;5.50;;;;;;;-150.27;100.00;61272.81;5236346;28;20282;-71
2022/04/19 09:49:09;;;;;;;8.15;5.18;;;;;;;-150.27;100.00;61272.81;5251014;28;20039;-69
2022/04/19 09:51:40;;;;;;;8.18;4.97;;;;;;;-150.27;100.00;61272.81;5238489;28;20143;-69
2022/04/19 09:54:21;;;;;;;7.10;5.10;;;;;;;-150.27;100.00;61272.81;5248941;28;20123;-70
2022/04/19 09:56:53;;;;;;;6.43;4.75;;;;;;;-150.27;100.00;61272.81;5236485;28;20033;-69
2022/04/19 09:59:28;;;;;;;7.85;5.03;;;;;;;-150.27;100.00;61272.81;5250297;28;20025;-69
2022/04/19 10:10:31;;;;;;;7.70;5.05;;;;;;;-150.27;100.00;61272.81;5239654;28;20032;-68
2022/04/19 10:13:06;;;;;;;5.72;4.95;;;;;;;-150.27;100.00;61272.81;5233490;28;20072;-69
2022/04/19 10:15:38;;;;;;;6.63;5.18;;;;;;;-150.27;100.00;61272.81;5211431;28;20046;-69
2022/04/19 10:18:10;;;;;;;8.65;5.30;;;;;;;-150.27;100.00;61272.81;5230961;28;20050;-68
2022/04/19 10:20:50;;;;;;;8.38;5.57;;;;;;;-150.27;100.00;61272.81;5230119;28;20342;-68
2022/04/19 10:23:34;;;;;;;8.82;4.82;;;;;;;-150.27;100.00;61272.81;5235010;28;20059;-69
2022/04/19 10:26:29;;;;;;;6.47;4.75;;;;;;;-150.27;100.00;61272.81;5235814;28;20036;-69
2022/04/19 10:29:18;;;;;;;8.32;5.07;;;;;;;-150.27;100.00;61272.81;5239574;28;20036;-69
2022/04/19 10:32:04;;;;;;;9.23;5.03;;;;;;;-150.27;100.00;61272.81;5246526;28;20025;-70
2022/04/19 10:34:37;;;;;;;7.82;5.82;;;;;;;-150.27;100.00;61272.81;5233522;28;20657;-68
2022/04/19 10:37:11;;;;;;;9.07;4.85;;;;;;;-150.27;100.00;61272.81;5216064;28;20546;-69
2022/04/19 10:39:51;;;;;;;7.47;4.95;;;;;;;-150.27;100.00;61272.81;5224134;28;20356;-69
2022/04/19 10:42:36;;;;;;;7.25;5.10;;;;;;;-150.27;100.00;61272.81;5236752;28;20021;-69
2022/04/19 10:45:13;;;;;;;7.85;6.38;;;;;;;-150.27;100.00;61272.81;5226886;28;20035;-69
2022/04/19 10:47:53;;;;;;;9.57;5.22;;;;;;;-150.27;100.00;61272.81;5228885;28;20099;-69
2022/04/19 10:50:33;;;;;;;10.48;5.75;;;;;;;-150.27;100.00;61272.81;5228985;28;20025;-69
2022/04/19 10:53:09;;;;;;;9.20;5.45;;;;;;;-150.27;100.00;61272.81;5229965;28;20086;-70
2022/04/19 10:56:06;;;;;;;8.25;5.85;;;;;;;-150.27;100.00;61272.81;5231324;28;20079;-69
2022/04/19 10:58:40;;;;;;;6.20;4.47;;;;;;;-150.27;100.00;61272.81;5231038;28;20120;-69
2022/04/19 11:01:43;;;;;;;5.53;4.70;;;;;;;-150.27;100.00;61272.81;5230018;28;20105;-69
2022/04/19 11:04:38;;;;;;;5.03;4.38;;;;;;;-150.27;100.00;61272.81;5196416;28;20814;-69
2022/04/19 11:07:42;;;;;;;5.20;4.32;;;;;;;-150.27;100.00;61272.81;5241033;28;20083;-69
2022/04/19 11:10:36;;;;;;;6.18;4.35;;;;;;;-150.27;100.00;61272.81;5234757;28;20360;-69
2022/04/19 11:13:07;;;;;;;7.55;5.35;;;;;;;-150.27;100.00;61272.81;5224219;28;20030;-69
2022/04/19 11:15:42;;;;;;;10.52;6.43;;;;;;;-150.27;100.00;61272.81;5210334;28;20040;-69
2022/04/19 11:18:22;;;;;;;9.48;5.50;;;;;;;-150.27;100.00;61272.81;5250117;28;20037;-69
2022/04/19 11:20:56;;;;;;;7.65;5.00;;;;;;;-150.27;100.00;61272.81;5231869;28;20045;-69
2022/04/19 11:23:29;;;;;;;7.95;5.88;;;;;;;-150.27;100.00;61272.81;5250410;28;20041;-69
2022/04/19 11:26:02;;;;;;;11.27;6.38;;;;;;;-150.27;100.00;61272.81;5249795;28;20036;-69
2022/04/19 11:28:34;;;;;;;8.80;6.32;;;;;;;-150.27;100.00;61272.81;5232533;28;20020;-69
2022/04/19 11:31:05;;;;;;;11.45;6.00;;;;;;;-150.27;100.00;61272.81;5241869;28;20026;-69
2022/04/19 11:33:37;;;;;;;13.18;7.22;;;;;;;-150.27;100.00;61272.81;5250273;28;20101;-69
2022/04/19 11:36:13;;;;;;;8.30;5.90;;;;;;;-150.27;100.00;61272.81;5249646;28;20443;-69
2022/04/19 11:38:50;;;;;;;8.95;5.95;;;;;;;-150.27;100.00;61272.81;5250803;28;20029;-69
2022/04/19 11:46:57;;;;;;;11.18;6.60;;;;;;;-150.27;100.00;61272.81;5250009;28;20518;-69
2022/04/19 11:49:34;;;;;;;8.90;7.28;;;;;;;-150.27;100.00;61272.81;5250437;28;20459;-69
2022/04/19 11:52:11;;;;;;;9.07;6.38;;;;;;;-150.27;100.00;61272.81;5249903;28;20033;-69
2022/04/19 11:54:43;;;;;;;19.10;8.60;;;;;;;-150.27;100.00;61272.81;5249875;28;20430;-69
2022/04/19 11:57:14;;;;;;;11.30;7.15;;;;;;;-150.27;100.00;61272.81;5248979;28;20025;-69
2022/04/19 11:59:52;;;;;;;9.48;5.82;;;;;;;-150.27;100.00;61272.81;5220799;28;20044;-69
2022/04/19 12:02:23;;;;;;;11.38;5.93;;;;;;;-150.27;100.00;61272.81;5242930;28;20025;-69
2022/04/19 12:04:57;;;;;;;18.25;6.03;;;;;;;-150.27;100.00;61272.81;5231695;28;20049;-69
2022/04/19 12:07:28;;;;;;;12.02;5.50;;;;;;;-150.27;100.00;61272.81;5242173;28;20044;-68